createdAt,value
2022-12-28T10:19:32.261Z,6.23
2022-12-28T10:20:34.169Z,6.79
2022-12-28T10:21:36.096Z,6.94
2022-12-28T10:22:44.852Z,7.12
2022-12-28T10:25:17.207Z,7.50
2022-12-28T10:26:20.343Z,7.58
2022-12-28T10:27:24.556Z,7.57
2022-12-28T10:28:31.544Z,7.81
2022-12-28T10:29:33.681Z,8.10
2022-12-28T10:30:48.139Z,7.95
2022-12-28T10:32:17.651Z,8.27
2022-12-28T10:33:19.642Z,7.70
2022-12-28T10:34:22.532Z,7.91
2022-12-28T10:35:37.416Z,8.01
2022-12-28T10:36:40.151Z,7.74
2022-12-28T10:37:44.541Z,7.81
2022-12-28T10:38:54.014Z,7.59
2022-12-28T10:39:59.942Z,7.39
2022-12-28T10:41:09.655Z,7.55
2022-12-28T10:42:21.168Z,7.73
2022-12-28T10:43:22.702Z,7.93
2022-12-28T10:44:40.044Z,8.04
2022-12-28T10:45:48.114Z,8.79
2022-12-28T10:47:01.487Z,9.13
2022-12-28T10:48:10.008Z,9.35
2022-12-28T10:49:15.875Z,8.95
2022-12-28T10:50:56.853Z,9.41
2022-12-28T10:52:20.605Z,9.44
2022-12-28T10:53:28.195Z,8.79
2022-12-28T10:54:34.501Z,8.54
2022-12-28T10:55:36.606Z,8.33
2022-12-28T10:56:49.445Z,8.53
2022-12-28T10:58:27.473Z,9.02
2022-12-28T10:59:15.259Z,8.60
2022-12-28T11:00:23.599Z,8.44
2022-12-28T11:01:28.451Z,8.33
2022-12-28T11:02:32.566Z,8.21
2022-12-28T11:03:37.182Z,8.08
2022-12-28T11:04:52.527Z,8.06
2022-12-28T11:06:11.983Z,8.21
2022-12-28T11:07:30.364Z,7.92
2022-12-28T11:08:31.770Z,7.78
2022-12-28T11:09:35.255Z,7.65
2022-12-28T11:10:37.462Z,7.71
2022-12-28T11:11:39.363Z,7.61
2022-12-28T11:12:47.643Z,7.64
2022-12-28T11:13:55.697Z,7.65
2022-12-28T11:14:57.209Z,7.55
2022-12-28T11:15:59.420Z,7.67
2022-12-28T11:17:15.810Z,7.62
2022-12-28T11:28:31.956Z,8.05
2022-12-28T11:29:33.358Z,7.96
2022-12-28T11:30:34.753Z,7.92
2022-12-28T11:31:57.077Z,7.83
2022-12-28T11:33:01.386Z,8.00
2022-12-28T11:34:06.449Z,7.94
2022-12-28T11:35:15.621Z,8.11
2022-12-28T11:36:20.896Z,8.00
2022-12-28T11:37:22.347Z,8.13
2022-12-28T11:38:37.099Z,8.35
2022-12-28T11:39:47.064Z,8.65
2022-12-28T11:40:52.476Z,9.32
2022-12-28T11:43:28.787Z,9.36
2022-12-28T11:44:30.199Z,9.22
2022-12-28T11:45:51.806Z,9.24
2022-12-28T11:47:06.002Z,9.91
2022-12-28T11:48:41.343Z,10.06
2022-12-28T11:49:47.847Z,10.47
2022-12-28T11:50:53.242Z,10.35
2022-12-28T11:52:16.237Z,10.26
2022-12-28T11:53:46.545Z,9.38
2022-12-28T11:54:54.312Z,9.17
2022-12-28T11:56:09.442Z,8.86
2022-12-28T11:57:11.174Z,8.35
2022-12-28T11:58:44.221Z,8.46
2022-12-28T11:59:45.655Z,8.77
2022-12-28T12:00:48.255Z,8.29
2022-12-28T12:01:51.652Z,8.17
2022-12-28T12:03:00.821Z,8.24
2022-12-28T12:04:05.402Z,8.21
2022-12-28T12:05:37.654Z,7.86
2022-12-28T12:06:48.649Z,7.82
2022-12-28T12:07:50.153Z,7.71
2022-12-28T12:08:52.050Z,7.85
2022-12-28T12:10:21.187Z,7.81
2022-12-28T12:14:45.163Z,7.54
2022-12-28T12:15:47.741Z,7.79
2022-12-28T12:16:59.875Z,7.75
2022-12-28T12:18:07.430Z,8.23
2022-12-28T12:19:22.396Z,8.22
2022-12-28T12:20:23.744Z,8.83
2022-12-28T12:21:30.167Z,9.14
2022-12-28T12:22:38.227Z,8.34
2022-12-28T12:23:42.669Z,8.36
2022-12-28T12:25:07.805Z,8.39
2022-12-28T12:26:33.580Z,8.71
2022-12-28T12:27:41.496Z,8.84
2022-12-28T12:28:52.662Z,8.30
2022-12-28T12:30:01.817Z,8.32
2022-12-28T12:31:07.381Z,8.28
2022-12-28T12:32:38.026Z,8.44
2022-12-28T12:33:45.253Z,8.44
2022-12-28T12:34:51.803Z,8.78
2022-12-28T12:36:08.347Z,8.74
2022-12-28T12:37:31.292Z,8.30
2022-12-28T12:38:57.651Z,8.33
2022-12-28T12:40:07.504Z,8.15
2022-12-28T12:41:08.927Z,8.34
2022-12-28T12:42:25.518Z,8.03
2022-12-28T12:43:29.419Z,8.10
2022-12-28T12:45:01.559Z,7.95
2022-12-28T12:46:24.408Z,7.76
2022-12-28T12:47:58.137Z,7.42
2022-12-28T12:49:17.880Z,7.47
2022-12-28T12:50:53.445Z,7.50
2022-12-28T12:52:22.762Z,7.20
